Time;durP1;ratioP1;P1;durP2;ratioP2;P2;SDS_P1;SDS_P2;PMS_P1;PMS_P2;Temp;Humidity;BMP_temperature;BMP_pressure;BME280_temperature;BME280_humidity;BME280_pressure;Samples;Min_cycle;Max_cycle;Signal;HPM_P1;HPM_P2
2021/12/27 00:00:39;;;;;;;;;;;;;;;;;;4925945;28;20011;-86
2021/12/27 00:03:05;;;;;;;;;;;;;;;;;;4928496;28;19926;-86
2021/12/27 00:05:31;;;;;;;;;;;;;;;;;;4923937;28;19926;-86
2021/12/27 00:07:57;;;;;;;;;;;;;;;;;;4938725;28;20402;-86
2021/12/27 00:10:24;;;;;;;;;;;;;;;;;;4927420;28;20251;-86
2021/12/27 00:12:50;;;;;;;;;;;;;;;;;;4943978;28;19926;-86
2021/12/27 00:15:16;;;;;;;;;;;;;;;;;;4911395;28;22451;-85
2021/12/27 00:17:42;;;;;;;;;;;;;;;;;;4941524;28;19927;-86
2021/12/27 00:20:08;;;;;;;;;;;;;;;;;;4914298;28;19981;-86
2021/12/27 00:22:34;;;;;;;;;;;;;;;;;;4934303;28;19919;-85
2021/12/27 00:25:00;;;;;;;;;;;;;;;;;;4932091;28;19935;-86
2021/12/27 00:27:26;;;;;;;;;;;;;;;;;;4924572;28;19927;-86
2021/12/27 00:29:54;;;;;;;;;;;;;;;;;;4933320;28;20293;-85
2021/12/27 00:32:20;;;;;;;;;;;;;;;;;;4942045;28;20390;-85
2021/12/27 00:34:46;;;;;;;;;;;;;;;;;;4915965;28;20012;-85
2021/12/27 00:37:12;;;;;;;;;;;;;;;;;;4930406;28;20393;-85
2021/12/27 00:39:38;;;;;;;;;;;;;;;;;;4932844;28;19926;-85
2021/12/27 00:42:04;;;;;;;;;;;;;;;;;;4930924;28;20028;-85
2021/12/27 00:44:30;;;;;;;;;;;;;;;;;;4924447;28;19926;-85
2021/12/27 00:46:56;;;;;;;;;;;;;;;;;;4931932;28;20014;-86
2021/12/27 00:49:22;;;;;;;;;;;;;;;;;;4936716;28;19929;-86
2021/12/27 00:51:48;;;;;;;;;;;;;;;;;;4929620;28;19925;-86
2021/12/27 00:54:14;;;;;;;;;;;;;;;;;;4925421;28;20246;-86
2021/12/27 00:56:40;;;;;;;;;;;;;;;;;;4929569;28;19923;-86
2021/12/27 00:59:06;;;;;;;;;;;;;;;;;;4932704;28;19929;-86
2021/12/27 01:01:32;;;;;;;;;;;;;;;;;;4932839;28;20333;-87
2021/12/27 01:04:02;;;;;;;;;;;;;;;;;;4919230;28;19927;-86
2021/12/27 01:06:37;;;;;;;;;;;;;;;;;;4914443;28;19926;-87
2021/12/27 01:09:06;;;;;;;;;;;;;;;;;;4920708;28;20029;-85
2021/12/27 01:11:41;;;;;;;;;;;;;;;;;;4928559;28;19919;-86
2021/12/27 01:14:16;;;;;;;;;;;;;;;;;;4913956;28;19946;-86
2021/12/27 01:16:42;;;;;;;;;;;;;;;;;;4915977;29;19969;-85
2021/12/27 01:19:08;;;;;;;;;;;;;;;;;;4912766;28;19982;-86
2021/12/27 01:21:35;;;;;;;;;;;;;;;;;;4931673;28;19939;-86
2021/12/27 01:24:01;;;;;;;;;;;;;;;;;;4931554;28;19934;-86
2021/12/27 01:26:27;;;;;;;;;;;;;;;;;;4920263;28;19930;-85
2021/12/27 01:28:53;;;;;;;;;;;;;;;;;;4924254;28;19949;-85
2021/12/27 01:31:19;;;;;;;;;;;;;;;;;;4935276;28;19960;-86
2021/12/27 01:33:46;;;;;;;;;;;;;;;;;;4936033;28;19965;-86
2021/12/27 01:36:12;;;;;;;;;;;;;;;;;;4931745;28;20271;-86
2021/12/27 01:38:41;;;;;;;;;;;;;;;;;;4932401;28;19981;-85
2021/12/27 01:41:07;;;;;;;;;;;;;;;;;;4935430;28;19918;-85
2021/12/27 01:43:33;;;;;;;;;;;;;;;;;;4929939;28;19964;-85
2021/12/27 01:45:59;;;;;;;;;;;;;;;;;;4934905;28;20020;-85
2021/12/27 01:48:27;;;;;;;;;;;;;;;;;;4918139;28;20001;-85
2021/12/27 01:50:54;;;;;;;;;;;;;;;;;;4919701;28;20309;-85
2021/12/27 01:53:23;;;;;;;;;;;;;;;;;;4916882;28;19926;-86
2021/12/27 01:55:49;;;;;;;;;;;;;;;;;;4920965;28;19922;-86
2021/12/27 01:58:17;;;;;;;;;;;;;;;;;;4935071;28;19919;-86
2021/12/27 02:00:43;;;;;;;;;;;;;;;;;;4921176;28;19932;-85
2021/12/27 02:03:11;;;;;;;;;;;;;;;;;;4946884;28;20016;-86
2021/12/27 02:05:37;;;;;;;;;;;;;;;;;;4934025;28;20029;-85
2021/12/27 02:08:03;;;;;;;;;;;;;;;;;;4914470;28;20012;-85
2021/12/27 02:10:32;;;;;;;;;;;;;;;;;;4932028;28;20028;-85
2021/12/27 02:12:59;;;;;;;;;;;;;;;;;;4917938;29;19949;-86
2021/12/27 02:15:25;;;;;;;;;;;;;;;;;;4931037;28;20408;-86
2021/12/27 02:17:51;;;;;;;;;;;;;;;;;;4929579;28;19918;-86
2021/12/27 02:20:17;;;;;;;;;;;;;;;;;;4944175;28;19940;-86
2021/12/27 02:22:44;;;;;;;;;;;;;;;;;;4945424;28;19966;-86
2021/12/27 02:25:11;;;;;;;;;;;;;;;;;;4936601;28;19948;-86
2021/12/27 02:27:37;;;;;;;;;;;;;;;;;;4930548;29;20804;-85
2021/12/27 02:30:03;;;;;;;;;;;;;;;;;;4933653;28;20056;-86
2021/12/27 02:32:30;;;;;;;;;;;;;;;;;;4917676;28;20540;-86
2021/12/27 02:34:56;;;;;;;;;;;;;;;;;;4919548;28;19928;-86
2021/12/27 02:37:22;;;;;;;;;;;;;;;;;;4927417;28;19918;-86
2021/12/27 02:39:48;;;;;;;;;;;;;;;;;;4930885;28;19918;-85
2021/12/27 02:42:14;;;;;;;;;;;;;;;;;;4930887;28;19926;-86
2021/12/27 02:44:40;;;;;;;;;;;;;;;;;;4925499;28;20284;-86
2021/12/27 02:47:06;;;;;;;;;;;;;;;;;;4916855;29;19924;-86
2021/12/27 02:49:32;;;;;;;;;;;;;;;;;;4922183;28;20263;-85
2021/12/27 02:51:58;;;;;;;;;;;;;;;;;;4934970;28;19934;-86
2021/12/27 02:54:31;;;;;;;;;;;;;;;;;;4935359;28;19919;-85
2021/12/27 02:56:58;;;;;;;;;;;;;;;;;;4921835;28;19927;-85
2021/12/27 02:59:24;;;;;;;;;;;;;;;;;;4935481;28;19929;-85
2021/12/27 03:01:50;;;;;;;;;;;;;;;;;;4918486;28;19922;-86
2021/12/27 03:04:16;;;;;;;;;;;;;;;;;;4921328;28;20384;-87
2021/12/27 03:06:42;;;;;;;;;;;;;;;;;;4919652;28;19922;-87
2021/12/27 03:09:10;;;;;;;;;;;;;;;;;;4936406;28;20342;-87
2021/12/27 03:11:36;;;;;;;;;;;;;;;;;;4922805;28;19922;-86
2021/12/27 03:14:02;;;;;;;;;;;;;;;;;;4920364;28;19929;-82
2021/12/27 03:16:31;;;;;;;;;;;;;;;;;;4932638;28;22053;-82
2021/12/27 03:18:57;;;;;;;;;;;;;;;;;;4945932;28;20005;-81
2021/12/27 03:21:23;;;;;;;;;;;;;;;;;;4918481;28;20005;-82
2021/12/27 03:23:48;;;;;;;;;;;;;;;;;;4929922;28;19926;-82
2021/12/27 03:26:14;;;;;;;;;;;;;;;;;;4926731;28;20017;-81
2021/12/27 03:28:40;;;;;;;;;;;;;;;;;;4931169;28;20009;-82
2021/12/27 03:31:06;;;;;;;;;;;;;;;;;;4924530;28;20339;-81
2021/12/27 03:33:32;;;;;;;;;;;;;;;;;;4928035;28;20076;-79
2021/12/27 03:36:03;;;;;;;;;;;;;;;;;;4948255;28;19926;-81
2021/12/27 03:38:29;;;;;;;;;;;;;;;;;;4941459;28;20325;-82
2021/12/27 03:40:55;;;;;;;;;;;;;;;;;;4929245;28;20274;-81
2021/12/27 03:43:21;;;;;;;;;;;;;;;;;;4940042;28;20008;-82
2021/12/27 03:45:47;;;;;;;;;;;;;;;;;;4946916;28;20402;-82
2021/12/27 03:48:13;;;;;;;;;;;;;;;;;;4924296;28;20586;-82
2021/12/27 03:50:39;;;;;;;;;;;;;;;;;;4919602;28;20053;-82
2021/12/27 03:53:05;;;;;;;;;;;;;;;;;;4931834;28;19926;-82
2021/12/27 03:55:31;;;;;;;;;;;;;;;;;;4930132;28;19919;-82
2021/12/27 03:58:07;;;;;;;;;;;;;;;;;;4932103;28;20286;-82
2021/12/27 04:00:47;;;;;;;;;;;;;;;;;;4924598;28;20348;-81
2021/12/27 04:03:13;;;;;;;;;;;;;;;;;;4929525;28;20900;-82
2021/12/27 04:05:39;;;;;;;;;;;;;;;;;;4928156;28;19937;-82
2021/12/27 04:08:09;;;;;;;;;;;;;;;;;;4929453;28;19970;-82
2021/12/27 04:10:35;;;;;;;;;;;;;;;;;;4933960;28;20365;-81
2021/12/27 04:13:01;;;;;;;;;;;;;;;;;;4928406;28;19922;-81
2021/12/27 04:15:27;;;;;;;;;;;;;;;;;;4912043;28;19926;-83
2021/12/27 04:17:53;;;;;;;;;;;;;;;;;;4931001;28;19933;-82
2021/12/27 04:20:19;;;;;;;;;;;;;;;;;;4930540;28;19919;-82
2021/12/27 04:22:45;;;;;;;;;;;;;;;;;;4932734;28;19927;-82
2021/12/27 04:25:11;;;;;;;;;;;;;;;;;;4930951;28;19922;-81
2021/12/27 04:27:37;;;;;;;;;;;;;;;;;;4930210;28;19973;-82
2021/12/27 04:30:03;;;;;;;;;;;;;;;;;;4932455;28;19931;-82
2021/12/27 04:32:29;;;;;;;;;;;;;;;;;;4939365;28;22316;-81
2021/12/27 04:34:55;;;;;;;;;;;;;;;;;;4932461;28;19926;-82
2021/12/27 04:37:21;;;;;;;;;;;;;;;;;;4929343;28;19965;-82
2021/12/27 04:39:47;;;;;;;;;;;;;;;;;;4934898;28;19935;-82
2021/12/27 04:42:12;;;;;;;;;;;;;;;;;;4924773;28;20340;-82
2021/12/27 04:44:38;;;;;;;;;;;;;;;;;;4929344;28;20328;-82
2021/12/27 04:47:04;;;;;;;;;;;;;;;;;;4927400;28;19933;-82
2021/12/27 04:49:30;;;;;;;;;;;;;;;;;;4911359;28;19929;-82
2021/12/27 04:51:56;;;;;;;;;;;;;;;;;;4929142;28;19923;-82
2021/12/27 04:54:22;;;;;;;;;;;;;;;;;;4925510;28;19918;-81
2021/12/27 04:56:48;;;;;;;;;;;;;;;;;;4926317;28;20335;-81
2021/12/27 04:59:14;;;;;;;;;;;;;;;;;;4924346;28;19925;-81
2021/12/27 05:01:40;;;;;;;;;;;;;;;;;;4928522;28;20254;-82
2021/12/27 05:04:06;;;;;;;;;;;;;;;;;;4935384;28;19953;-82
2021/12/27 05:06:32;;;;;;;;;;;;;;;;;;4928960;28;19949;-82
2021/12/27 05:08:58;;;;;;;;;;;;;;;;;;4939966;28;19923;-82
2021/12/27 05:11:24;;;;;;;;;;;;;;;;;;4928666;28;20017;-82
2021/12/27 05:13:50;;;;;;;;;;;;;;;;;;4926863;28;19929;-82
2021/12/27 05:16:16;;;;;;;;;;;;;;;;;;4924512;28;20499;-82
2021/12/27 05:18:42;;;;;;;;;;;;;;;;;;4941725;28;22538;-81
2021/12/27 05:21:11;;;;;;;;;;;;;;;;;;4931222;28;20286;-81
2021/12/27 05:23:37;;;;;;;;;;;;;;;;;;4924141;28;19923;-82
2021/12/27 05:26:03;;;;;;;;;;;;;;;;;;4929749;28;19934;-80
2021/12/27 05:28:28;;;;;;;;;;;;;;;;;;4925963;28;20899;-79
2021/12/27 05:30:54;;;;;;;;;;;;;;;;;;4927218;28;19973;-80
2021/12/27 05:33:20;;;;;;;;;;;;;;;;;;4923788;28;19982;-80
2021/12/27 05:35:46;;;;;;;;;;;;;;;;;;4927616;28;19923;-82
2021/12/27 05:38:12;;;;;;;;;;;;;;;;;;4924916;28;19923;-80
2021/12/27 05:40:38;;;;;;;;;;;;;;;;;;4928959;28;19930;-82
2021/12/27 05:43:06;;;;;;;;;;;;;;;;;;4943817;28;19922;-81
2021/12/27 05:45:32;;;;;;;;;;;;;;;;;;4924366;28;19993;-82
2021/12/27 05:47:58;;;;;;;;;;;;;;;;;;4931832;28;19926;-81
2021/12/27 05:50:24;;;;;;;;;;;;;;;;;;4921919;28;19933;-81
2021/12/27 05:52:50;;;;;;;;;;;;;;;;;;4929498;28;20242;-81
2021/12/27 05:55:16;;;;;;;;;;;;;;;;;;4929396;28;19922;-80
2021/12/27 05:57:42;;;;;;;;;;;;;;;;;;4925991;28;19978;-82
2021/12/27 06:00:10;;;;;;;;;;;;;;;;;;4934830;28;20470;-82
2021/12/27 06:02:36;;;;;;;;;;;;;;;;;;4928942;28;19945;-81
2021/12/27 06:05:03;;;;;;;;;;;;;;;;;;4929462;28;20472;-81
2021/12/27 06:07:30;;;;;;;;;;;;;;;;;;4926555;28;20117;-80
2021/12/27 06:09:56;;;;;;;;;;;;;;;;;;4927226;28;19922;-81
2021/12/27 06:12:25;;;;;;;;;;;;;;;;;;4916041;28;20062;-81
2021/12/27 06:14:52;;;;;;;;;;;;;;;;;;4917732;28;19944;-81
2021/12/27 06:17:18;;;;;;;;;;;;;;;;;;4910679;28;19922;-82
2021/12/27 06:19:44;;;;;;;;;;;;;;;;;;4942208;28;19981;-82
2021/12/27 06:22:10;;;;;;;;;;;;;;;;;;4927793;28;19922;-81
2021/12/27 06:24:40;;;;;;;;;;;;;;;;;;4930132;28;19918;-82
2021/12/27 06:27:06;;;;;;;;;;;;;;;;;;4928842;28;20046;-82
2021/12/27 06:29:36;;;;;;;;;;;;;;;;;;4923695;28;19936;-82
2021/12/27 06:32:05;;;;;;;;;;;;;;;;;;4929582;28;19918;-82
2021/12/27 06:34:34;;;;;;;;;;;;;;;;;;4927081;28;20007;-81
2021/12/27 06:37:01;;;;;;;;;;;;;;;;;;4932378;28;20921;-81
2021/12/27 06:39:27;;;;;;;;;;;;;;;;;;4911441;28;19922;-82
2021/12/27 06:41:53;;;;;;;;;;;;;;;;;;4918217;28;20005;-82
2021/12/27 06:44:20;;;;;;;;;;;;;;;;;;4927928;28;19983;-84
2021/12/27 06:46:56;;;;;;;;;;;;;;;;;;4932238;28;19949;-82
2021/12/27 06:49:22;;;;;;;;;;;;;;;;;;4922736;28;20055;-81
2021/12/27 06:51:49;;;;;;;;;;;;;;;;;;4931991;28;20329;-82
2021/12/27 06:54:20;;;;;;;;;;;;;;;;;;4940151;28;20033;-83
2021/12/27 06:57:07;;;;;;;;;;;;;;;;;;4928806;28;21932;-79
2021/12/27 06:59:33;;;;;;;;;;;;;;;;;;4908431;28;20033;-79
2021/12/27 07:01:59;;;;;;;;;;;;;;;;;;4945358;28;20013;-79
2021/12/27 07:04:26;;;;;;;;;;;;;;;;;;4940931;28;19922;-77
2021/12/27 07:06:52;;;;;;;;;;;;;;;;;;4933699;28;19930;-79
2021/12/27 07:09:18;;;;;;;;;;;;;;;;;;4915622;28;19921;-78
2021/12/27 07:11:44;;;;;;;;;;;;;;;;;;4933012;28;19961;-79
2021/12/27 07:14:10;;;;;;;;;;;;;;;;;;4923896;28;19980;-80
2021/12/27 07:16:36;;;;;;;;;;;;;;;;;;4931069;28;19926;-78
2021/12/27 07:19:02;;;;;;;;;;;;;;;;;;4931112;28;19925;-77
2021/12/27 07:21:28;;;;;;;;;;;;;;;;;;4944232;28;21015;-79
2021/12/27 07:23:54;;;;;;;;;;;;;;;;;;4930004;28;19928;-78
2021/12/27 07:26:23;;;;;;;;;;;;;;;;;;4927513;28;19929;-79
2021/12/27 07:28:52;;;;;;;;;;;;;;;;;;4918866;28;19923;-79
2021/12/27 07:31:18;;;;;;;;;;;;;;;;;;4928783;28;19926;-79
2021/12/27 07:39:59;;;;;;;;;;;;;;;;;;4922896;28;19917;-83
2021/12/27 07:42:25;;;;;;;;;;;;;;;;;;4898035;28;19950;-81
2021/12/27 07:44:51;;;;;;;;;;;;;;;;;;4927297;28;20354;-81
2021/12/27 07:47:17;;;;;;;;;;;;;;;;;;4899038;28;19938;-80
2021/12/27 07:49:48;;;;;;;;;;;;;;;;;;4904508;29;19926;-82
2021/12/27 07:52:14;;;;;;;;;;;;;;;;;;4908177;28;20009;-78
2021/12/27 07:54:40;;;;;;;;;;;;;;;;;;4912758;29;19926;-80
2021/12/27 07:57:06;;;;;;;;;;;;;;;;;;4905295;28;19926;-81
2021/12/27 07:59:32;;;;;;;;;;;;;;;;;;4897059;29;19923;-87
2021/12/27 08:02:02;;;;;;;;;;;;;;;;;;4909840;28;20310;-86
2021/12/27 08:04:28;;;;;;;;;;;;;;;;;;4914145;28;19953;-85
2021/12/27 08:06:54;;;;;;;;;;;;;;;;;;4907524;29;19972;-85
2021/12/27 08:09:23;;;;;;;;;;;;;;;;;;4932793;28;20364;-85
2021/12/27 08:11:49;;;;;;;;;;;;;;;;;;4951500;28;20042;-84
2021/12/27 08:14:19;;;;;;;;;;;;;;;;;;4915984;28;20068;-79
2021/12/27 08:16:45;;;;;;;;;;;;;;;;;;4933342;28;19926;-79
2021/12/27 08:19:11;;;;;;;;;;;;;;;;;;4930736;28;19978;-79
2021/12/27 08:21:37;;;;;;;;;;;;;;;;;;4936265;28;20342;-78
2021/12/27 08:24:03;;;;;;;;;;;;;;;;;;4948658;28;19918;-83
2021/12/27 08:26:29;;;;;;;;;;;;;;;;;;4933039;28;20527;-85
2021/12/27 08:28:55;;;;;;;;;;;;;;;;;;4947179;28;19933;-79
2021/12/27 08:31:24;;;;;;;;;;;;;;;;;;4940179;28;19934;-81
2021/12/27 08:33:50;;;;;;;;;;;;;;;;;;4939153;28;20302;-83
2021/12/27 08:36:16;;;;;;;;;;;;;;;;;;4944927;28;19964;-81
2021/12/27 08:38:44;;;;;;;;;;;;;;;;;;4916428;28;19926;-80
2021/12/27 08:41:11;;;;;;;;;;;;;;;;;;4920227;28;19926;-81
2021/12/27 08:43:37;;;;;;;;;;;;;;;;;;4932958;28;20414;-80
2021/12/27 08:46:03;;;;;;;;;;;;;;;;;;4938025;28;20006;-80
2021/12/27 08:48:29;;;;;;;;;;;;;;;;;;4931462;28;21657;-80
2021/12/27 08:50:55;;;;;;;;;;;;;;;;;;4933902;28;20388;-80
2021/12/27 08:53:25;;;;;;;;;;;;;;;;;;4942729;28;19926;-83
2021/12/27 08:56:00;;;;;;;;;;;;;;;;;;4923063;28;19926;-79
2021/12/27 08:58:26;;;;;;;;;;;;;;;;;;4927966;28;19927;-81
2021/12/27 09:00:55;;;;;;;;;;;;;;;;;;4926933;28;19925;-79
2021/12/27 09:03:21;;;;;;;;;;;;;;;;;;4931746;28;20292;-81
2021/12/27 09:05:47;;;;;;;;;;;;;;;;;;4936822;28;20401;-80
2021/12/27 09:08:13;;;;;;;;;;;;;;;;;;4922003;28;19958;-79
2021/12/27 09:10:39;;;;;;;;;;;;;;;;;;4935080;28;19933;-79
2021/12/27 09:13:05;;;;;;;;;;;;;;;;;;4929855;28;19927;-79
2021/12/27 09:15:31;;;;;;;;;;;;;;;;;;4926497;28;20378;-80
2021/12/27 09:17:57;;;;;;;;;;;;;;;;;;4928949;28;19923;-81
2021/12/27 09:20:25;;;;;;;;;;;;;;;;;;4909085;28;20369;-80
2021/12/27 09:22:51;;;;;;;;;;;;;;;;;;4916801;28;20457;-79
2021/12/27 09:25:17;;;;;;;;;;;;;;;;;;4934381;28;19930;-81
2021/12/27 09:27:58;;;;;;;;;;;;;;;;;;4929129;28;20326;-81
2021/12/27 09:30:33;;;;;;;;;;;;;;;;;;4926783;28;19931;-81
2021/12/27 09:33:05;;;;;;;;;;;;;;;;;;4934623;28;19919;-81
2021/12/27 09:35:37;;;;;;;;;;;;;;;;;;4943304;28;20005;-83
2021/12/27 09:38:08;;;;;;;;;;;;;;;;;;4916472;28;19931;-81
2021/12/27 09:40:43;;;;;;;;;;;;;;;;;;4919095;28;19945;-83
2021/12/27 09:43:09;;;;;;;;;;;;;;;;;;4911244;28;20369;-84
2021/12/27 09:45:35;;;;;;;;;;;;;;;;;;4940376;28;19923;-87
2021/12/27 09:48:01;;;;;;;;;;;;;;;;;;4929911;28;19942;-88
2021/12/27 09:50:28;;;;;;;;;;;;;;;;;;4924217;28;19922;-81
2021/12/27 09:52:57;;;;;;;;;;;;;;;;;;4926263;28;19926;-80
2021/12/27 09:58:19;;;;;;;;;;;;;;;;;;4926894;28;19926;-81
2021/12/27 10:03:59;;;;;;;;;;;;;;;;;;4918033;28;19930;-82
2021/12/27 10:06:48;;;;;;;;;;;;;;;;;;4920997;28;20297;-83
2021/12/27 10:09:44;;;;;;;;;;;;;;;;;;;;;
2021/12/27 10:12:22;;;;;;;;;;;;;;;;;;4918671;28;19934;-82
2021/12/27 10:20:35;;;;;;;;;;;;;;;;;;4925064;28;19922;-83
2021/12/27 10:26:02;;;;;;;;;;;;;;;;;;4874502;29;19933;-84
2021/12/27 10:31:57;;;;;;;;;;;;;;;;;;4882289;29;20594;-81
2021/12/27 10:34:39;;;;;;;;;;;;;;;;;;4859797;29;19963;-80
2021/12/27 10:37:17;;;;;;;;;;;;;;;;;;4845333;29;20678;-80
2021/12/27 10:39:50;;;;;;;;;;;;;;;;;;4859770;29;19984;-80
2021/12/27 10:42:17;;;;;;;;;;;;;;;;;;4855478;29;19966;-81
2021/12/27 10:44:51;;;;;;;;;;;;;;;;;;4877575;29;19931;-82
2021/12/27 10:50:29;;;;;;;;;;;;;;;;;;4888793;29;20702;-83
2021/12/27 10:53:10;;;;;;;;;;;;;;;;;;4876430;29;19926;-83
2021/12/27 10:55:47;;;;;;;;;;;;;;;;;;4859752;29;19959;-82
2021/12/27 10:58:37;;;;;;;;;;;;;;;;;;4899140;29;20587;-83
2021/12/27 11:01:03;;;;;;;;;;;;;;;;;;4900693;29;20355;-82
2021/12/27 11:03:30;;;;;;;;;;;;;;;;;;4887642;29;19929;-82
2021/12/27 11:06:07;;;;;;;;;;;;;;;;;;4887099;29;19955;-80
2021/12/27 11:08:33;;;;;;;;;;;;;;;;;;4867333;29;20005;-82
2021/12/27 11:11:10;;;;;;;;;;;;;;;;;;4887271;29;20185;-81
2021/12/27 11:13:40;;;;;;;;;;;;;;;;;;4883691;29;19927;-81
2021/12/27 11:16:14;;;;;;;;;;;;;;;;;;4898211;29;19929;-82
2021/12/27 11:18:50;;;;;;;;;;;;;;;;;;4916832;28;19981;-83
2021/12/27 11:21:53;;;;;;;;;;;;;;;;;;4929489;28;20326;-82
2021/12/27 11:24:47;;;;;;;;;;;;;;;;;;4931779;28;19926;-83
2021/12/27 11:27:16;;;;;;;;;;;;;;;;;;4917141;28;19930;-81
2021/12/27 11:29:54;;;;;;;;;;;;;;;;;;4894801;29;19930;-83
2021/12/27 11:32:23;;;;;;;;;;;;;;;;;;4896096;28;19926;-82
2021/12/27 11:34:57;;;;;;;;;;;;;;;;;;4903417;28;19930;-82
2021/12/27 11:40:34;;;;;;;;;;;;;;;;;;4918455;28;19922;-82
2021/12/27 11:43:14;;;;;;;;;;;;;;;;;;4929993;28;19922;-83
2021/12/27 11:46:09;;;;;;;;;;;;;;;;;;4921135;28;20481;-82
2021/12/27 11:48:35;;;;;;;;;;;;;;;;;;4925032;28;19922;-82
2021/12/27 11:51:04;;;;;;;;;;;;;;;;;;4920067;28;19918;-82
2021/12/27 11:53:44;;;;;;;;;;;;;;;;;;4929297;28;19965;-83
2021/12/27 11:56:12;;;;;;;;;;;;;;;;;;4937795;28;20653;-83
2021/12/27 12:01:38;;;;;;;;;;;;;;;;;;4936632;28;20320;-81
2021/12/27 12:04:07;;;;;;;;;;;;;;;;;;4918675;28;20374;-81
2021/12/27 12:06:49;;;;;;;;;;;;;;;;;;4951852;28;20030;-82
2021/12/27 12:12:28;;;;;;;;;;;;;;;;;;4945163;28;19930;-84
2021/12/27 12:15:06;;;;;;;;;;;;;;;;;;4916382;28;19961;-81
2021/12/27 12:17:36;;;;;;;;;;;;;;;;;;4930580;28;20512;-83
2021/12/27 12:20:02;;;;;;;;;;;;;;;;;;4928593;28;20303;-84
2021/12/27 12:22:52;;;;;;;;;;;;;;;;;;4932118;28;21487;-84
2021/12/27 12:25:46;;;;;;;;;;;;;;;;;;4928857;28;20258;-86
2021/12/27 12:28:49;;;;;;;;;;;;;;;;;;;;;
2021/12/27 12:34:31;;;;;;;;;;;;;;;;;;4926612;28;19926;-87
2021/12/27 12:37:00;;;;;;;;;;;;;;;;;;4931803;28;19918;-88
2021/12/27 12:42:23;;;;;;;;;;;;;;;;;;4929840;28;19929;-88
2021/12/27 12:57:33;;;;;;;;;;;;;;;;;;4925986;28;19931;-87
2021/12/27 12:59:59;;;;;;;;;;;;;;;;;;4929928;28;19918;-87
2021/12/27 13:02:28;;;;;;;;;;;;;;;;;;4916713;28;20735;-87
2021/12/27 13:04:58;;;;;;;;;;;;;;;;;;4931145;28;19922;-86
2021/12/27 13:07:27;;;;;;;;;;;;;;;;;;4925156;28;20297;-89
2021/12/27 13:09:53;;;;;;;;;;;;;;;;;;4935725;28;20425;-88
2021/12/27 13:12:19;;;;;;;;;;;;;;;;;;4914767;28;20486;-88
2021/12/27 13:14:45;;;;;;;;;;;;;;;;;;4918430;28;19918;-88
2021/12/27 13:17:22;;;;;;;;;;;;;;;;;;4906362;28;20388;-89
2021/12/27 13:25:55;;;;;;;;;;;;;;;;;;4924845;28;20251;-88
2021/12/27 13:28:34;;;;;;;;;;;;;;;;;;4923418;28;19922;-88
2021/12/27 13:31:04;;;;;;;;;;;;;;;;;;4934001;28;19950;-90
2021/12/27 13:33:39;;;;;;;;;;;;;;;;;;4918727;28;20409;-89
2021/12/27 13:36:14;;;;;;;;;;;;;;;;;;4927886;28;19931;-87
2021/12/27 13:41:31;;;;;;;;;;;;;;;;;;4939578;28;20263;-85
2021/12/27 13:44:10;;;;;;;;;;;;;;;;;;4931756;28;19933;-91
2021/12/27 13:47:20;;;;;;;;;;;;;;;;;;4924140;28;20297;-89
2021/12/27 13:50:15;;;;;;;;;;;;;;;;;;;;;
2021/12/27 13:52:44;;;;;;;;;;;;;;;;;;4943855;28;19926;-88
2021/12/27 13:55:13;;;;;;;;;;;;;;;;;;4911075;28;19918;-89
2021/12/27 14:00:34;;;;;;;;;;;;;;;;;;4925743;28;20016;-89
2021/12/27 14:03:00;;;;;;;;;;;;;;;;;;4930293;28;20285;-85
2021/12/27 14:05:26;;;;;;;;;;;;;;;;;;4930257;28;19930;-86
2021/12/27 14:07:53;;;;;;;;;;;;;;;;;;4927226;28;19974;-87
2021/12/27 14:10:27;;;;;;;;;;;;;;;;;;4926615;28;20034;-86
2021/12/27 14:12:53;;;;;;;;;;;;;;;;;;4915079;28;20014;-86
2021/12/27 14:15:19;;;;;;;;;;;;;;;;;;4928961;28;19923;-87
2021/12/27 14:17:45;;;;;;;;;;;;;;;;;;4946081;28;19949;-85
2021/12/27 14:20:14;;;;;;;;;;;;;;;;;;4928690;28;22787;-86
2021/12/27 14:22:40;;;;;;;;;;;;;;;;;;4922862;28;19919;-88
2021/12/27 14:27:53;;;;;;;;;;;;;;;;;;4920974;28;19922;-86
2021/12/27 14:30:19;;;;;;;;;;;;;;;;;;4910125;28;19927;-86
2021/12/27 14:32:45;;;;;;;;;;;;;;;;;;4934304;28;19988;-86
2021/12/27 14:35:26;;;;;;;;;;;;;;;;;;4915170;28;19918;-85
2021/12/27 14:37:52;;;;;;;;;;;;;;;;;;4939748;28;20560;-87
2021/12/27 14:40:21;;;;;;;;;;;;;;;;;;4904898;28;19933;-88
2021/12/27 14:42:48;;;;;;;;;;;;;;;;;;4937439;28;19925;-86
2021/12/27 14:45:14;;;;;;;;;;;;;;;;;;4909083;28;20313;-85
2021/12/27 14:47:41;;;;;;;;;;;;;;;;;;4922886;28;19926;-83
2021/12/27 14:50:09;;;;;;;;;;;;;;;;;;4906577;28;19934;-88
2021/12/27 14:52:40;;;;;;;;;;;;;;;;;;4920653;28;20026;-87
2021/12/27 14:55:06;;;;;;;;;;;;;;;;;;4923537;28;20281;-86
2021/12/27 14:57:33;;;;;;;;;;;;;;;;;;4919003;28;19926;-84
2021/12/27 15:00:02;;;;;;;;;;;;;;;;;;4912163;28;19926;-84
2021/12/27 15:02:28;;;;;;;;;;;;;;;;;;4914824;28;19933;-85
2021/12/27 15:04:54;;;;;;;;;;;;;;;;;;4915852;28;19926;-84
2021/12/27 15:07:20;;;;;;;;;;;;;;;;;;4927329;28;19927;-84
2021/12/27 15:09:46;;;;;;;;;;;;;;;;;;4930641;28;19926;-83
2021/12/27 15:12:13;;;;;;;;;;;;;;;;;;4922923;28;19922;-87
2021/12/27 15:14:39;;;;;;;;;;;;;;;;;;4918579;28;19927;-83
2021/12/27 15:17:05;;;;;;;;;;;;;;;;;;4918205;28;19926;-84
2021/12/27 15:19:33;;;;;;;;;;;;;;;;;;4905080;28;19926;-83
2021/12/27 15:22:00;;;;;;;;;;;;;;;;;;4926645;28;20321;-84
2021/12/27 15:24:26;;;;;;;;;;;;;;;;;;4907358;28;20406;-84
2021/12/27 15:26:52;;;;;;;;;;;;;;;;;;4935089;28;19923;-81
2021/12/27 15:29:19;;;;;;;;;;;;;;;;;;4965135;28;19934;-81
2021/12/27 15:31:45;;;;;;;;;;;;;;;;;;4948315;28;19957;-82
2021/12/27 15:34:11;;;;;;;;;;;;;;;;;;4925768;28;20017;-83
2021/12/27 15:36:37;;;;;;;;;;;;;;;;;;4944574;28;19953;-84
2021/12/27 15:39:03;;;;;;;;;;;;;;;;;;4930038;28;20290;-85
2021/12/27 15:41:29;;;;;;;;;;;;;;;;;;4923322;28;21485;-86
2021/12/27 15:43:55;;;;;;;;;;;;;;;;;;4926233;28;19927;-83
2021/12/27 15:46:22;;;;;;;;;;;;;;;;;;4921358;28;20020;-84
2021/12/27 15:48:48;;;;;;;;;;;;;;;;;;4919235;29;19918;-83
2021/12/27 15:51:14;;;;;;;;;;;;;;;;;;4914478;28;19945;-85
2021/12/27 15:53:42;;;;;;;;;;;;;;;;;;4930640;28;19922;-83
2021/12/27 15:56:08;;;;;;;;;;;;;;;;;;4931223;28;19973;-85
2021/12/27 15:58:38;;;;;;;;;;;;;;;;;;4918480;28;19918;-84
2021/12/27 16:01:04;;;;;;;;;;;;;;;;;;4937733;28;20270;-85
2021/12/27 16:03:30;;;;;;;;;;;;;;;;;;4918555;28;20400;-83
2021/12/27 16:05:56;;;;;;;;;;;;;;;;;;4924841;28;19974;-83
2021/12/27 16:08:22;;;;;;;;;;;;;;;;;;4926459;28;19930;-83
2021/12/27 16:10:48;;;;;;;;;;;;;;;;;;4933445;28;20421;-83
2021/12/27 16:13:14;;;;;;;;;;;;;;;;;;4931127;28;19922;-85
2021/12/27 16:15:40;;;;;;;;;;;;;;;;;;4931443;28;20636;-83
2021/12/27 16:18:06;;;;;;;;;;;;;;;;;;4929388;28;20275;-83
2021/12/27 16:20:32;;;;;;;;;;;;;;;;;;4923006;28;20287;-83
2021/12/27 16:22:58;;;;;;;;;;;;;;;;;;4931129;28;19930;-83
2021/12/27 16:25:24;;;;;;;;;;;;;;;;;;4926114;28;19919;-82
2021/12/27 16:27:50;;;;;;;;;;;;;;;;;;4927705;28;19930;-82
2021/12/27 16:30:17;;;;;;;;;;;;;;;;;;4941726;28;19927;-83
2021/12/27 16:32:44;;;;;;;;;;;;;;;;;;4915769;28;19934;-84
2021/12/27 16:35:13;;;;;;;;;;;;;;;;;;4944163;28;20388;-83
2021/12/27 16:37:39;;;;;;;;;;;;;;;;;;4918880;28;19918;-84
2021/12/27 16:40:12;;;;;;;;;;;;;;;;;;4926328;28;20266;-86
2021/12/27 16:42:46;;;;;;;;;;;;;;;;;;4928139;28;19919;-85
2021/12/27 16:45:22;;;;;;;;;;;;;;;;;;4930258;28;20267;-86
2021/12/27 16:47:48;;;;;;;;;;;;;;;;;;4931727;28;19925;-84
2021/12/27 16:50:15;;;;;;;;;;;;;;;;;;4939016;28;20286;-83
2021/12/27 16:52:41;;;;;;;;;;;;;;;;;;4944305;28;19919;-84
2021/12/27 16:55:10;;;;;;;;;;;;;;;;;;4927172;28;19968;-85
2021/12/27 16:57:39;;;;;;;;;;;;;;;;;;4945736;28;20354;-85
2021/12/27 17:00:05;;;;;;;;;;;;;;;;;;4930322;28;19968;-87
2021/12/27 17:02:32;;;;;;;;;;;;;;;;;;4931767;28;19918;-84
2021/12/27 17:04:58;;;;;;;;;;;;;;;;;;4937653;28;20016;-84
2021/12/27 17:07:24;;;;;;;;;;;;;;;;;;4927710;28;20009;-83
2021/12/27 17:09:51;;;;;;;;;;;;;;;;;;4930815;28;20008;-84
2021/12/27 17:12:18;;;;;;;;;;;;;;;;;;4927217;28;20017;-84
2021/12/27 17:14:52;;;;;;;;;;;;;;;;;;4918213;28;20318;-85
2021/12/27 17:17:21;;;;;;;;;;;;;;;;;;4926637;28;19922;-85
2021/12/27 17:19:47;;;;;;;;;;;;;;;;;;4941834;28;20013;-82
2021/12/27 17:22:14;;;;;;;;;;;;;;;;;;4922748;28;19918;-83
2021/12/27 17:25:04;;;;;;;;;;;;;;;;;;4943272;28;20278;-86
2021/12/27 17:27:31;;;;;;;;;;;;;;;;;;4919745;28;19922;-83
2021/12/27 17:29:57;;;;;;;;;;;;;;;;;;4941891;28;19982;-83
2021/12/27 17:32:26;;;;;;;;;;;;;;;;;;4909776;28;19931;-86
2021/12/27 17:34:52;;;;;;;;;;;;;;;;;;4930244;28;20416;-84
2021/12/27 17:37:18;;;;;;;;;;;;;;;;;;4922851;28;20049;-85
2021/12/27 17:40:01;;;;;;;;;;;;;;;;;;4911993;28;20033;-87
2021/12/27 17:42:27;;;;;;;;;;;;;;;;;;4924754;28;20345;-81
2021/12/27 17:44:53;;;;;;;;;;;;;;;;;;4923215;28;19926;-82
2021/12/27 17:47:24;;;;;;;;;;;;;;;;;;4926335;28;19938;-81
2021/12/27 17:49:50;;;;;;;;;;;;;;;;;;4908789;28;19926;-82
2021/12/27 17:52:16;;;;;;;;;;;;;;;;;;4908929;28;19922;-80
2021/12/27 17:54:42;;;;;;;;;;;;;;;;;;4926853;28;19997;-81
2021/12/27 17:57:10;;;;;;;;;;;;;;;;;;4928993;28;19933;-81
2021/12/27 17:59:38;;;;;;;;;;;;;;;;;;4923000;28;20370;-81
2021/12/27 18:02:04;;;;;;;;;;;;;;;;;;4937996;28;19929;-81
2021/12/27 18:04:31;;;;;;;;;;;;;;;;;;4921810;28;20005;-82
2021/12/27 18:06:57;;;;;;;;;;;;;;;;;;4910345;28;20310;-81